Capitol Logistics 2219


KIAD
Washington Dulles International Airport
Dulles, Virginia, US
KSDF
Louisville International Airport-Standiford Field
Louisville, Kentucky, US

Activity Log

Date Flight Route Aircraft Duration
01/28/2020 CPX2219 RNLDI4 OTTTO Q68 HVQ UNCKL MAUDD6 B763 1h 34m
01/18/2020 CPX2219 RNLDI4 OTTTO Q68 HVQ UNCKL MAUDD6 B763 1h 44m
11/18/2019 CPX2219 RNLDI4 OTTTO Q68 HVQ UNCKL MAUDD6 B763 1h 31m
03/25/2018 CPX906 RNLDI4 OTTTO Q68 HVQ UNCKL MAUDD4 B744 1h 12m

Route Details

Aircraft Information
Primary: Boeing 767-300BDSF
Backup: Boeing 757-200SF
Date Restrictions
Between:Nov 16, 2019
Dec 31, 2019
Route Data
Distance: 392nm
Sched. Duration: 1h 13m
Avg. Duration: 1h 30m (+17m)
Times Flown: 4
Recm'd Route: RNLDI4 OTTTO Q68 HVQ UNCKL MAUDD6
Planned Altitude: 32,000ft
Origin Wx: KIAD 181552Z 14008KT 10SM FEW014 SCT055 BKN120 BKN250 09/04 A3017 RMK AO2 SLP218 T00890039
Dest. Wx: KSDF 181556Z 32008KT 4SM -RA BR BKN007 BKN017 OVC042 12/11 A3006 RMK AO2 SLP178 P0005 T01220106
Notes: SEASONAL FLIGHT | UPS SURGE OPS CONTRACT

Financial History
Total Freight: 432,751lbs
Average Load: 108,188lbs/flt
Fuel Used: 69,177lbs
Avg. Fuel Used: 17,294lbs/flt
Fuel Expense: $87,971
Avg. Fuel Expense: $21,993
Avg. Fuel Cost: $1.26/lbs
Total Gross Income: $697,977
Pilot Pay: $646
Total Expenses: $80,243
Total Revenue: $528,680
Average Revenue: $174,494.20